Airport View

Enter AWOS ICAO identifier for current METAR.

ex. KFNL

KSDL 251153Z AUTO 00000KT 10SM CLR 26/07 A2987 RMK AO2 SLP084 T02560067 10317 20244 53008

25 Sep 2020 12:27

Phone: 480-483-3049

Other Area AWOS: KDVT - KPHX - KFFZ - KGEU

TAF KSDL 251130Z 2512/2612 00000KT P6SM SKC FM251700 18004KT P6SM SKC FM252000 24006KT P6SM SKC FM260200 VRB03KT P6SM SKC